| time (UTC) | temp C | wind direction | speed KPH | gust KPH | rain 1hr cm | rain 24hr cm | rain mn cm | humidity % | barometer mb |
| 20260906174605 | 27 | 252 | 3.2 | 14.5 | 0.00 | 0.00 | 0.00 | 31 | 1026.1 |
| 20260906173107 | 28 | 336 | 14.5 | 30.6 | 0.00 | 0.00 | 0.00 | 32 | 1026.0 |
| 20260906171602 | 28 | 349 | 16.1 | 32.2 | 0.00 | 0.00 | 0.00 | 30 | 1026.1 |
| 20260906170106 | 30 | 246 | 8.0 | 24.1 | 0.00 | 0.00 | 0.00 | 26 | 1025.8 |
| 20260906164620 | 31 | 207 | 11.3 | 22.5 | 0.00 | 0.00 | 0.00 | 26 | 1025.6 |
| 20260906163108 | 31 | 257 | 12.9 | 22.5 | 0.00 | 0.00 | 0.00 | 25 | 1025.5 |
| 20260906161605 | 31 | 259 | 14.5 | 24.1 | 0.00 | 0.00 | 0.00 | 25 | 1025.5 |
| 20260906160108 | 31 | 250 | 11.3 | 27.4 | 0.00 | 0.00 | 0.00 | 25 | 1025.3 |
| 20260906154602 | 32 | 267 | 12.9 | 24.1 | 0.00 | 0.00 | 0.00 | 25 | 1025.2 |
| 20260906153102 | 32 | 198 | 14.5 | 25.7 | 0.00 | 0.00 | 0.00 | 24 | 1025.1 |
| 20260906151609 | 33 | 226 | 6.4 | 22.5 | 0.00 | 0.00 | 0.00 | 23 | 1025.1 |
| 20260906150109 | 33 | 247 | 8.0 | 17.7 | 0.00 | 0.00 | 0.00 | 23 | 1025.1 |
| 20260906144629 | 32 | 261 | 11.3 | 27.4 | 0.00 | 0.00 | 0.00 | 24 | 1025.5 |
| 20260906143115 | 32 | 194 | 16.1 | 27.4 | 0.00 | 0.00 | 0.00 | 25 | 1025.5 |
| 20260906141605 | 32 | 225 | 14.5 | 35.4 | 0.00 | 0.00 | 0.00 | 25 | 1025.8 |
| 20260906140103 | 32 | 227 | 14.5 | 29.0 | 0.00 | 0.00 | 0.00 | 25 | 1025.9 |
| 20260906134601 | 32 | 243 | 16.1 | 27.4 | 0.00 | 0.00 | 0.00 | 25 | 1026.0 |
| 20260906133109 | 32 | 202 | 17.7 | 35.4 | 0.00 | 0.00 | 0.00 | 26 | 1025.9 |
| 20260906131615 | 31 | 213 | 14.5 | 30.6 | 0.00 | 0.00 | 0.00 | 26 | 1026.0 |
| 20260906130103 | 31 | 210 | 8.0 | 29.0 | 0.00 | 0.00 | 0.00 | 26 | 1026.1 |
| 20260906124605 | 32 | 238 | 8.0 | 29.0 | 0.00 | 0.00 | 0.00 | 26 | 1026.3 |
| 20260906123110 | 31 | 280 | 9.7 | 27.4 | 0.00 | 0.00 | 0.00 | 26 | 1026.3 |
| 20260906121602 | 31 | 271 | 12.9 | 27.4 | 0.00 | 0.00 | 0.00 | 26 | 1026.4 |
| 20260906120126 | 31 | 281 | 6.4 | 25.7 | 0.00 | 0.00 | 0.00 | 27 | 1026.6 |
| 20260906114609 | 30 | 249 | 9.7 | 20.9 | 0.00 | 0.00 | 0.00 | 28 | 1026.6 |
| 20260906113103 | 30 | 195 | 9.7 | 33.8 | 0.00 | 0.00 | 0.00 | 28 | 1026.7 |
| 20260906111640 | 30 | 217 | 6.4 | 17.7 | 0.00 | 0.00 | 0.00 | 28 | 1026.8 |
| 20260906110103 | 28 | 211 | 9.7 | 20.9 | 0.00 | 0.00 | 0.00 | 31 | 1026.9 |
| 20260906104605 | 27 | 108 | 8.0 | 19.3 | 0.00 | 0.00 | 0.00 | 32 | 1027.0 |
| 20260906103102 | 26 | 263 | 3.2 | 11.3 | 0.00 | 0.00 | 0.00 | 35 | 1027.2 |
| 20260906101611 | 26 | 262 | 6.4 | 12.9 | 0.00 | 0.00 | 0.00 | 35 | 1027.3 |
| 20260906100105 | 26 | 250 | 1.6 | 9.7 | 0.00 | 0.00 | 0.00 | 35 | 1027.3 |
| 20260906094606 | 26 | 239 | 8.0 | 16.1 | 0.00 | 0.00 | 0.00 | 35 | 1027.3 |
| 20260906093117 | 26 | 260 | 6.4 | 16.1 | 0.00 | 0.00 | 0.00 | 35 | 1027.3 |
| 20260906091618 | 26 | 235 | 1.6 | 9.7 | 0.00 | 0.00 | 0.00 | 35 | 1027.2 |
| 20260906090137 | 25 | 251 | 1.6 | 9.7 | 0.00 | 0.00 | 0.00 | 36 | 1027.2 |
| 20260906084601 | 24 | 0 | 1.6 | 6.4 | 0.00 | 0.00 | 0.00 | 39 | 1027.2 |
| 20260906083107 | 23 | 0 | 0.0 | 0.0 | 0.00 | 0.00 | 0.00 | 41 | 1027.3 |
| 20260906081611 | 23 | 0 | 0.0 | 0.0 | 0.00 | 0.00 | 0.00 | 42 | 1027.3 |
| 20260906080104 | 23 | 0 | 0.0 | 0.0 | 0.00 | 0.00 | 0.00 | 42 | 1027.1 |
| 20260906074602 | 23 | 198 | 0.0 | 3.2 | 0.00 | 0.00 | 0.00 | 41 | 1027.3 |
| 20260906073105 | 23 | 170 | 0.0 | 8.0 | 0.00 | 0.00 | 0.00 | 41 | 1027.2 |
| 20260906071610 | 23 | 112 | 6.4 | 11.3 | 0.00 | 0.00 | 0.00 | 41 | 1027.2 |
| 20260906070103 | 23 | 221 | 1.6 | 9.7 | 0.00 | 0.00 | 0.00 | 40 | 1026.9 |
| 20260906064601 | 23 | 250 | 3.2 | 11.3 | 0.00 | 0.00 | 0.00 | 38 | 1026.7 |
| 20260906063106 | 23 | 260 | 8.0 | 16.1 | 0.00 | 0.00 | 0.00 | 39 | 1026.5 |
| 20260906061602 | 25 | 294 | 11.3 | 38.6 | 0.00 | 0.00 | 0.00 | 36 | 1026.7 |
| 20260906060106 | 20 | 202 | 3.2 | 11.3 | 0.00 | 0.00 | 0.00 | 47 | 1026.8 |
| 20260906054604 | 20 | 0 | 1.6 | 4.8 | 0.00 | 0.00 | 0.00 | 53 | 1026.9 |
| 20260906053101 | 20 | 141 | 4.8 | 8.0 | 0.00 | 0.00 | 0.00 | 51 | 1026.6 |
| 20260906051606 | 20 | 285 | 1.6 | 6.4 | 0.00 | 0.00 | 0.00 | 52 | 1026.6 |
| 20260906050135 | 20 | 0 | 0.0 | 3.2 | 0.00 | 0.00 | 0.00 | 51 | 1026.6 |
| 20260906044604 | 19 | 130 | 3.2 | 6.4 | 0.00 | 0.00 | 0.00 | 55 | 1026.3 |
| 20260906043112 | 20 | 0 | 0.0 | 1.6 | 0.00 | 0.00 | 0.00 | 52 | 1026.6 |
| 20260906041618 | 19 | 58 | 0.0 | 4.8 | 0.00 | 0.00 | 0.00 | 54 | 1026.5 |
| 20260906040123 | 19 | 68 | 0.0 | 3.2 | 0.00 | 0.00 | 0.00 | 54 | 1026.3 |
| 20260906034611 | 20 | 122 | 3.2 | 4.8 | 0.00 | 0.00 | 0.00 | 53 | 1026.6 |
| 20260906033106 | 19 | 0 | 0.0 | 3.2 | 0.00 | 0.00 | 0.00 | 56 | 1027.0 |
| 20260906031606 | 19 | 114 | 1.6 | 6.4 | 0.00 | 0.00 | 0.00 | 55 | 1026.9 |
| 20260906030135 | 19 | 124 | 3.2 | 6.4 | 0.00 | 0.00 | 0.00 | 54 | 1026.9 |
| 20260906024604 | 20 | 0 | 0.0 | 1.6 | 0.00 | 0.00 | 0.00 | 53 | 1026.9 |
| 20260906023126 | 20 | 0 | 0.0 | 3.2 | 0.00 | 0.00 | 0.00 | 53 | 1027.0 |
| 20260906021613 | 20 | 0 | 0.0 | 1.6 | 0.00 | 0.00 | 0.00 | 53 | 1026.9 |
| 20260906020107 | 20 | 0 | 0.0 | 1.6 | 0.00 | 0.00 | 0.00 | 53 | 1026.9 |
| 20260906014621 | 20 | 0 | 0.0 | 1.6 | 0.00 | 0.00 | 0.00 | 52 | 1027.1 |
| 20260906013102 | 20 | 112 | 0.0 | 1.6 | 0.00 | 0.00 | 0.00 | 52 | 1027.3 |
| 20260906011607 | 20 | 0 | 0.0 | 1.6 | 0.00 | 0.00 | 0.00 | 52 | 1027.2 |
| 20260906010104 | 20 | 100 | 0.0 | 1.6 | 0.00 | 0.00 | 0.00 | 52 | 1027.3 |
| 20260906004609 | 20 | 0 | 0.0 | 1.6 | 0.00 | 0.00 | 0.00 | 52 | 1027.3 |
| 20260906003109 | 21 | 65 | 0.0 | 1.6 | 0.00 | 0.00 | 0.00 | 51 | 1027.4 |
| 20260906001605 | 21 | 0 | 0.0 | 0.0 | 0.00 | 0.00 | 0.00 | 50 | 1027.7 |
| 20260905234615 | 20 | 95 | 0.0 | 3.2 | 0.00 | 0.00 | 0.00 | 51 | 1027.4 |
| 20260905233102 | 21 | 0 | 0.0 | 3.2 | 0.00 | 0.00 | 0.00 | 49 | 1027.7 |
| 20260905231600 | 21 | 0 | 0.0 | 1.6 | 0.00 | 0.00 | 0.00 | 49 | 1027.8 |
| 20260905230106 | 21 | 0 | 0.0 | 1.6 | 0.00 | 0.00 | 0.00 | 48 | 1027.7 |
| 20260905224609 | 22 | 0 | 0.0 | 0.0 | 0.00 | 0.00 | 0.00 | 47 | 1027.6 |
| 20260905223101 | 22 | 0 | 0.0 | 3.2 | 0.00 | 0.00 | 0.00 | 46 | 1027.6 |
| 20260905221602 | 23 | 112 | 1.6 | 4.8 | 0.00 | 0.00 | 0.00 | 45 | 1027.6 |
| 20260905220106 | 23 | 0 | 1.6 | 3.2 | 0.00 | 0.00 | 0.00 | 44 | 1027.6 |
| 20260905214612 | 23 | 0 | 0.0 | 8.0 | 0.00 | 0.00 | 0.00 | 43 | 1027.6 |
| 20260905213111 | 24 | 56 | 0.0 | 3.2 | 0.00 | 0.00 | 0.00 | 42 | 1027.6 |
| 20260905211607 | 24 | 51 | 3.2 | 9.7 | 0.00 | 0.00 | 0.00 | 41 | 1027.5 |
| 20260905210108 | 25 | 0 | 0.0 | 8.0 | 0.00 | 0.00 | 0.00 | 40 | 1027.6 |
| 20260905204602 | 25 | 54 | 4.8 | 19.3 | 0.00 | 0.00 | 0.00 | 40 | 1027.6 |
| 20260905203118 | 26 | 345 | 11.3 | 20.9 | 0.00 | 0.00 | 0.00 | 38 | 1027.4 |
| 20260905201608 | 26 | 326 | 11.3 | 24.1 | 0.00 | 0.00 | 0.00 | 37 | 1027.3 |
| 20260905200106 | 26 | 320 | 12.9 | 20.9 | 0.00 | 0.00 | 0.00 | 36 | 1027.1 |
| 20260905194601 | 27 | 20 | 16.1 | 30.6 | 0.00 | 0.00 | 0.00 | 35 | 1026.9 |
| 20260905193103 | 27 | 332 | 20.9 | 32.2 | 0.00 | 0.00 | 0.00 | 33 | 1026.5 |
| 20260905191614 | 28 | 6 | 17.7 | 29.0 | 0.00 | 0.00 | 0.00 | 31 | 1026.3 |
| 20260905190104 | 28 | 342 | 14.5 | 25.7 | 0.00 | 0.00 | 0.00 | 30 | 1026.2 |
| 20260905184611 | 29 | 294 | 16.1 | 27.4 | 0.00 | 0.00 | 0.00 | 29 | 1025.9 |
| 20260905183106 | 30 | 352 | 9.7 | 22.5 | 0.00 | 0.00 | 0.00 | 28 | 1025.9 |
| 20260905181603 | 31 | 0 | 0.0 | 1.6 | 0.00 | 0.00 | 0.00 | 26 | 1025.7 |
| 20260905180100 | 31 | 321 | 0.0 | 0.0 | 0.00 | 0.00 | 0.00 | 25 | 1025.6 |